Welcome To Fetcheveryone

Our awesome training log doesn't hide its best features behind a paywall. Search thousands of events, get advice, play games, measure routes, and more! Join our friendly community of runners, cyclists, and swimmers.
Click here to get started
Already a Fetchie? Sign in here

Maidenhead Easter 10

Fri April 2 2010 Listed by Corona
74 Entrants Club PB SB Pred Time WAVA
joncharles going for club record and pb Eastern Veterans AC, Werrington Joggers 52:23 52:23 53:41 53:17 85.18
~Ed~ Les Croupiers RC 55:06 57:48 56:30 57:48 76.12
Jock Itch Sciatica all way round. Good time considering :) FERC 55:53 57:16 54:45 57:16 79.25
Forrest of the Dean Cambridge Triathlon Club, Dulwich Runners AC 59:40 1:06:52 1:06:52 66.23
Running Fish shocking performance. 50s slower than last hm 10m split. just wasnt there today. Unaffiliated 59:49 59:49 1:00:19 78.28
Silent Runner Unaffiliated 59:49 1:00:53 1:02:59 74.35
Peacey Should of gone quicker. White Horse Harriers AC 1:01:33 1:02:05 1:02:05 71.14
Rookery Unaffiliated 1:01:56 1:03:57 1:03:57 69.48
JJ1 Garmin mile splits: 6:05/6:10/6:04/6:19/6:21/6:11/6:19/6:14/6:42/6:16 RAF AC 1:02:18 1:03:03 1:03:00 1:03:03 70.24
Windsor Wool Datchet Dashers 1:02:41 1:04:23 1:04:23 69.30
RFJ totally pants - see blog Swindon Striders 1:02:46 1:04:18 1:05:00 1:11:18 64.12
BrianK Reading Roadrunners 1:02:50 1:12:32 1:14:00 65.42
Beware Of The Fish Datchet Dashers 1:02:57 1:02:57 1:06:00 1:02:57 76.26
shaper47 Down on last year (64.50) but ran perfectly even race.  33.30 for each 5m split. teh good things was I didn't fade. Startign to get my form back as a result of Reading hal
f, and a couple of decent long training runs Reading Roadrunners 1:03:58 1:07:10 1:07:10 73.32
trigger74 Very pleased with time, only felt in trouble in 9th mile but picked up for 10th. I really like this course despite the grounddog day start round the business park.

Splits
6:35 6:29 6:38 6:50 6:52 6:40 6:40 6:42 7:13 6:46 36 Reading Roadrunners, Watford Joggers 1:04:14 1:08:01 1:08:01 65.11
Peteb69 100 Marathon Club, Serpentine RC 1:06:13 1:06:13 1:09:00 1:06:13 68.54
thesteadygroove Northbrook AC, Fell Runners Association 1:06:28 1:06:28 1:06:28 66.85
Jonny Started off running within myself at 7.20m/m & then brought it down to 7.12m/m to 5 miles.  Felt good at 5 & put in a 7m/m.  However, at 8 miles my legs went & struggled very slowly in to the inish even walking a bit. Unaffiliated 1:06:28 1:15:45 1:15:45 58.46
chumleywarner Big PB!
Not absolutely flat but pretty flat
Windy in parts
172 of 1055 finishers, winning time 51.17
Southampton AC 1:06:37 1:06:37 1:10:00 1:06:37 67.69
Dibble Enjoyed that a lot better than last year, not a PB (but a much better WAVA) as the previous was set at this race 19 years ago!

Splits: 8:20,7:58,8:15,7:24,8:14,7:53,7:59,8:04,8:08,7:20 FERC, Maidenhead & District Cycling Club 1:06:56 1:19:34 1:19:34 62.42
phal I liked that run :-) PB :-) *boing* Northbrook AC, FARC 1:07:06 1:07:06 1:07:06 73.57
A.C Unaffiliated 1:07:07 1:07:07 1:09:27 1:07:07 67.18
marcymarc24 Halfway in 34.15.  Good last mile for a big PB, happy days. Harlow RC 1:07:43 1:07:43 1:09:58 1:07:43 65.39
BigChiefRunningBore PB - yah je suis improvamont! decent race ok course - bit narrow towards 7-9 miles. wind and rain held off. saw lots of friends past and present. Went for it at the gun 6.22 was too quick really settled to 6.50ish, slowed from 7 miles and didn't enjoy it til last mile. getting there!
My time 1:08:59 , offical chip 1:09:00, Gun time 1:09:20 - now I have to do it again! Watford Joggers 1:07:52 1:08:59 1:10:00 1:08:59 66.80
Caterpillar Bit of a catarstroff on the pacing.  Got a bit spooked by the Garmin beeping prematurely at each mile marker, and got scared I might finish a Garmin 10 miles in the predicted 1:22:00 and still have quarter of mile to go.  :-)  Ran the last mile much tooooooooo fast.  So stopped for a bit of larking about near the finish, but it got a bit silly so I had to finish.  LOL! Walton AC 1:08:05 1:21:37 1:22:00 1:21:37 60.85
GD FERC 1:08:24 1:09:49 1:12:00 1:09:49 63.65
chrisp1 hillingdon triathletes 1:09:00 1:09:00 1:09:00 68.43
DuncanG Unaffiliated 1:09:13 1:13:18 1:13:18 61.52
chinny_chinn Burnham Joggers 1:09:17 1:15:00 1:15:00 58.77
GAZGIB Bracknell Forest Runners 1:09:41 1:18:39 1:20:00 1:18:39 57.33
Waveydavey Reading Roadrunners 1:09:41 1:09:45 1:09:45 67.14
threedrains Watford Joggers 1:09:49 1:15:00 1:15:00 58.67
Nic.1 Definitely felt better in this race, mind more focused. Slowed a bit mile 8-9, small incline and very rough path which didn't suit me. 50 Marathon Club, Reading Joggers, Wargrave Runners 1:09:52 1:39:40 1:39:40 65.73
Magpie Rob Ranelagh Harriers 1:10:50 1:28:37 1:40:00 1:33:51 48.36
cwebbee Unaffiliated 1:11:00 1:19:01 1:19:01 57.85
Gymfreak Datchet Dashers 1:11:03 1:23:49 1:23:49 58.88
Morf Reading Joggers 1:11:16 1:11:16 1:13:36 71.50
Sid Sandhurst Joggers 1:11:42 1:11:42 1:11:42 72.20
wiglet My 10 mile PB and I worked hard for it, but conditions were perfect and the race was brilliantly organised and marshalled Unaffiliated 1:11:54 1:11:54 1:12:30 1:11:54 67.33
Tiptoes Reading Roadrunners 1:11:54 1:13:33 1:10:03 1:13:33 62.15
Heavyweight  entered UKnetrunner 1:12:47 1:12:47 1:14:04 64.81
Hills of Death (HOD) Not in tip top shape and it showed. Poor run - Got to 5 miles at 37.20 mins so you can guess the rest. Did a quick first 3 and felt comfortable. Then started to feel it after half way Hit 10k about 46 mins so that was reasonable given the circumstances. I set a PB it was a PB stopping and walking break I counted 7/8 that's about 3 mins there !! I guess I'm just not fit to carry that pace out for 10 miles was my first PROPER race for about 9/10 months. Another day hey Riverside Runners 1:12:57 1:18:47 1:14:59 1:18:47 57.23
icklechick Winchester & District AC 1:13:40 1:13:40 1:13:40 67.06
Mr. K. Ran with RuthB2 - Aiming for 1:20:00. Slightly wrong. 

Splits - 7:44, 7:49, 7:40, 7:55, 7:47, 7:47, 7:54, 7:56, 8:15, 7:34, 0:16 (0.05m) - Cracking run Cove Joggers, Windle Valley Runners 1:13:56 1:17:31 1:18:39 58.12
poppysox Watford Joggers 1:14:25 1:14:46 1:40:00 1:38:04 50.55
JonCPRC Chineham Park Running Club 1:15:38 1:16:20 1:25:00 1:17:55 57.55
Um Bongo Sandhurst Joggers, Windle Valley Runners 1:15:41 1:15:41 1:15:41 64.51
MARTINLOOSE Unaffiliated 1:18:08 1:31:00 1:31:00 52.75
CR1970 Unaffiliated 1:18:36 1:24:49 1:24:49 59.84
RuthB2 Haslemere Border AC 1:18:37 1:18:37 1:20:00 1:18:37 62.93
Nick Cook Unaffiliated 1:19:17 1:31:39 1:32:00 1:31:39 54.67
katec Runnymede Runners 1:19:23 1:39:00 2:10:00 1:43:00 47.93
Rapscallion Farnham Runners, Gloucester AAC 1:19:48 1:19:48 1:19:48 57.74
lammo Unaffiliated 1:20:07 1:20:07 1:19:59 1:20:07 55.27
princessdave Chineham Park Running Club 1:20:14 1:21:12 1:30:00 1:21:12 60.78
neilsy Tough for first 5 miles - shins loosened up after that and ran the second half faster. Unaffiliated 1:21:21 1:21:21 1:20:00 1:21:21 55.43
hungry hippo Purple Patch Runners 1:22:01 1:41:54 1:20:00 0.00
Liliaicha Trail Running Association 1:22:13 1:22:13 1:29:28 56.73
Colourtelly Unaffiliated 1:22:32 1:22:32 1:23:38 67.92
Jo-bee A great race!!  Managed to get under 1:25 so I'm delighted and met some lovely people today.  Thanks to ClaireR who helped keep me going!! Unaffiliated 1:22:52 1:24:52 1:24:59 1:24:52 60.16
nothy Heart rate really high whole way round, chest still bad, the loop was souless but will do again next year
nts - wrinkled sock gave me big blister Handy Cross Runners 1:23:44 1:27:55 1:25:00 1:27:55 61.01
Becfleck Ampthill & Flitwick Flyers RC 1:26:57 1:26:57 1:26:57 56.77
Billsy Cruisers Running Club 1:27:42 1:27:42 1:38:00 1:27:42 58.60
plodding hippo Sorry! No idea how i managed last years time 100 Marathon Club 1:27:50 1:28:08 1:28:08 59.71
fetchwidow Unaffiliated 1:28:00 1:28:00 1:28:00 57.09
Fannyfernackerpan Unaffiliated 1:29:28 1:33:00 1:33:00 53.79
smiley broadling Unaffiliated 1:30:27 1:35:10 1:35:10 54.01
Puffing Bertie Asthma played up today but not as bad as the horse that tried to kill me!
Race its self was great and the marshalls were fab, i will defo do it again next year Unaffiliated 1:30:57 1:46:00 1:46:00 50.10
kgoddard7 Unaffiliated 1:31:40 1:31:40 1:31:40 53.84
SpeedyMel Nice and scenic! Littledown Harriers RC 1:38:36 1:38:36 2:00:00 1:43:06 48.96
Super Sue Metros RC, Poole AC 1:39:42 1:39:42 1:42:57 52.65
Corona FERC 1:41:52 1:51:23 1:55:00 1:51:23 42.04
Steady Edina The Prestwich Plodders 1:43:16 1:43:30 1:43:30 49.03
lesleyanne Unaffiliated 1:55:59 1:55:59 2:00:00 1:55:59 53.50

Also listed on:

Blogs

Mr. K. 5th Apr 10, 18:49
RuthB2 2nd Apr 10, 20:58
icklechick 2nd Apr 10, 20:14
Waveydavey 2nd Apr 10, 19:39
Liliaicha 2nd Apr 10, 13:24
RFJ 2nd Apr 10, 13:08
Back To Top

Close